sensor_id;sensor_type;location;lat;lon;timestamp;P1;durP1;ratioP1;P2;durP2;ratioP2
10418;SDS011;5256;48.728;9.140;2024-02-21T00:01:21;0.70;;;0.70;;
10418;SDS011;5256;48.728;9.140;2024-02-21T00:03:47;0.80;;;0.80;;
10418;SDS011;5256;48.728;9.140;2024-02-21T00:06:13;0.70;;;0.70;;
10418;SDS011;5256;48.728;9.140;2024-02-21T00:08:38;0.70;;;0.70;;
10418;SDS011;5256;48.728;9.140;2024-02-21T00:11:04;0.70;;;0.70;;
10418;SDS011;5256;48.728;9.140;2024-02-21T00:13:30;0.70;;;0.70;;
10418;SDS011;5256;48.728;9.140;2024-02-21T00:15:55;0.60;;;0.60;;
10418;SDS011;5256;48.728;9.140;2024-02-21T00:18:21;0.80;;;0.80;;
10418;SDS011;5256;48.728;9.140;2024-02-21T00:20:46;0.70;;;0.70;;
10418;SDS011;5256;48.728;9.140;2024-02-21T00:23:12;0.70;;;0.70;;
10418;SDS011;5256;48.728;9.140;2024-02-21T00:25:38;0.70;;;0.70;;
10418;SDS011;5256;48.728;9.140;2024-02-21T00:28:03;0.73;;;0.73;;
10418;SDS011;5256;48.728;9.140;2024-02-21T00:30:30;0.70;;;0.70;;
10418;SDS011;5256;48.728;9.140;2024-02-21T00:32:56;0.70;;;0.70;;
10418;SDS011;5256;48.728;9.140;2024-02-21T00:35:22;0.60;;;0.60;;
10418;SDS011;5256;48.728;9.140;2024-02-21T00:37:47;0.70;;;0.70;;
10418;SDS011;5256;48.728;9.140;2024-02-21T00:40:13;0.70;;;0.70;;
10418;SDS011;5256;48.728;9.140;2024-02-21T00:42:44;0.70;;;0.70;;
10418;SDS011;5256;48.728;9.140;2024-02-21T00:45:10;0.60;;;0.60;;
10418;SDS011;5256;48.728;9.140;2024-02-21T00:47:36;0.83;;;0.83;;
10418;SDS011;5256;48.728;9.140;2024-02-21T00:50:02;0.70;;;0.70;;
10418;SDS011;5256;48.728;9.140;2024-02-21T00:52:29;0.70;;;0.70;;
10418;SDS011;5256;48.728;9.140;2024-02-21T00:54:55;0.80;;;0.80;;
10418;SDS011;5256;48.728;9.140;2024-02-21T00:57:20;0.80;;;0.80;;
10418;SDS011;5256;48.728;9.140;2024-02-21T00:59:46;0.70;;;0.70;;
10418;SDS011;5256;48.728;9.140;2024-02-21T01:02:11;0.70;;;0.70;;
10418;SDS011;5256;48.728;9.140;2024-02-21T01:04:37;0.80;;;0.80;;
10418;SDS011;5256;48.728;9.140;2024-02-21T01:07:02;0.70;;;0.70;;
10418;SDS011;5256;48.728;9.140;2024-02-21T01:09:28;0.60;;;0.60;;
10418;SDS011;5256;48.728;9.140;2024-02-21T01:11:54;0.60;;;0.60;;
10418;SDS011;5256;48.728;9.140;2024-02-21T01:14:19;0.70;;;0.70;;
10418;SDS011;5256;48.728;9.140;2024-02-21T01:16:45;0.73;;;0.73;;
10418;SDS011;5256;48.728;9.140;2024-02-21T01:19:10;0.70;;;0.70;;
10418;SDS011;5256;48.728;9.140;2024-02-21T01:21:36;0.80;;;0.80;;
10418;SDS011;5256;48.728;9.140;2024-02-21T01:24:01;0.70;;;0.70;;
10418;SDS011;5256;48.728;9.140;2024-02-21T01:26:27;0.80;;;0.80;;
10418;SDS011;5256;48.728;9.140;2024-02-21T01:28:52;0.70;;;0.70;;
10418;SDS011;5256;48.728;9.140;2024-02-21T01:31:18;0.70;;;0.70;;
10418;SDS011;5256;48.728;9.140;2024-02-21T01:33:43;0.70;;;0.70;;
10418;SDS011;5256;48.728;9.140;2024-02-21T01:36:09;0.70;;;0.70;;
10418;SDS011;5256;48.728;9.140;2024-02-21T01:38:34;0.80;;;0.80;;
10418;SDS011;5256;48.728;9.140;2024-02-21T01:41:00;0.70;;;0.70;;
10418;SDS011;5256;48.728;9.140;2024-02-21T01:43:26;0.70;;;0.70;;
10418;SDS011;5256;48.728;9.140;2024-02-21T01:45:52;0.70;;;0.70;;
10418;SDS011;5256;48.728;9.140;2024-02-21T01:48:19;0.70;;;0.70;;
10418;SDS011;5256;48.728;9.140;2024-02-21T01:50:46;0.70;;;0.70;;
10418;SDS011;5256;48.728;9.140;2024-02-21T01:53:16;0.70;;;0.70;;
10418;SDS011;5256;48.728;9.140;2024-02-21T01:55:47;0.70;;;0.70;;
10418;SDS011;5256;48.728;9.140;2024-02-21T01:58:13;0.70;;;0.70;;
10418;SDS011;5256;48.728;9.140;2024-02-21T02:00:44;0.70;;;0.70;;
10418;SDS011;5256;48.728;9.140;2024-02-21T02:03:11;0.70;;;0.70;;
10418;SDS011;5256;48.728;9.140;2024-02-21T02:05:42;0.70;;;0.70;;
10418;SDS011;5256;48.728;9.140;2024-02-21T02:08:11;0.70;;;0.70;;
10418;SDS011;5256;48.728;9.140;2024-02-21T02:10:38;0.70;;;0.70;;
10418;SDS011;5256;48.728;9.140;2024-02-21T02:13:05;0.70;;;0.70;;
10418;SDS011;5256;48.728;9.140;2024-02-21T02:15:44;0.70;;;0.70;;
10418;SDS011;5256;48.728;9.140;2024-02-21T02:18:10;0.80;;;0.80;;
10418;SDS011;5256;48.728;9.140;2024-02-21T02:20:37;0.70;;;0.70;;
10418;SDS011;5256;48.728;9.140;2024-02-21T02:25:56;0.70;;;0.70;;
10418;SDS011;5256;48.728;9.140;2024-02-21T02:28:22;0.80;;;0.80;;
10418;SDS011;5256;48.728;9.140;2024-02-21T02:30:48;0.70;;;0.70;;
10418;SDS011;5256;48.728;9.140;2024-02-21T02:33:14;0.77;;;0.77;;
10418;SDS011;5256;48.728;9.140;2024-02-21T02:35:40;0.80;;;0.80;;
10418;SDS011;5256;48.728;9.140;2024-02-21T02:38:06;0.70;;;0.70;;
10418;SDS011;5256;48.728;9.140;2024-02-21T02:40:32;0.70;;;0.70;;
10418;SDS011;5256;48.728;9.140;2024-02-21T02:42:59;0.77;;;0.77;;
10418;SDS011;5256;48.728;9.140;2024-02-21T02:45:25;0.70;;;0.70;;
10418;SDS011;5256;48.728;9.140;2024-02-21T02:47:53;0.70;;;0.70;;
10418;SDS011;5256;48.728;9.140;2024-02-21T02:50:20;0.70;;;0.70;;
10418;SDS011;5256;48.728;9.140;2024-02-21T02:52:45;0.70;;;0.70;;
10418;SDS011;5256;48.728;9.140;2024-02-21T02:55:11;0.70;;;0.70;;
10418;SDS011;5256;48.728;9.140;2024-02-21T02:57:37;0.70;;;0.70;;
10418;SDS011;5256;48.728;9.140;2024-02-21T03:00:03;0.70;;;0.70;;
10418;SDS011;5256;48.728;9.140;2024-02-21T03:02:29;0.70;;;0.70;;
10418;SDS011;5256;48.728;9.140;2024-02-21T03:04:56;0.70;;;0.70;;
10418;SDS011;5256;48.728;9.140;2024-02-21T03:07:22;0.70;;;0.70;;
10418;SDS011;5256;48.728;9.140;2024-02-21T03:09:49;0.70;;;0.70;;
10418;SDS011;5256;48.728;9.140;2024-02-21T03:12:15;0.80;;;0.80;;
10418;SDS011;5256;48.728;9.140;2024-02-21T03:14:49;0.70;;;0.70;;
10418;SDS011;5256;48.728;9.140;2024-02-21T03:17:14;0.70;;;0.70;;
10418;SDS011;5256;48.728;9.140;2024-02-21T03:19:40;0.77;;;0.77;;
10418;SDS011;5256;48.728;9.140;2024-02-21T03:22:06;0.70;;;0.70;;
10418;SDS011;5256;48.728;9.140;2024-02-21T03:24:31;0.70;;;0.70;;
10418;SDS011;5256;48.728;9.140;2024-02-21T03:26:57;0.70;;;0.70;;
10418;SDS011;5256;48.728;9.140;2024-02-21T03:29:23;0.77;;;0.77;;
10418;SDS011;5256;48.728;9.140;2024-02-21T03:31:50;0.67;;;0.67;;
10418;SDS011;5256;48.728;9.140;2024-02-21T03:34:15;0.70;;;0.70;;
10418;SDS011;5256;48.728;9.140;2024-02-21T03:36:41;0.80;;;0.80;;
10418;SDS011;5256;48.728;9.140;2024-02-21T03:39:06;0.80;;;0.80;;
10418;SDS011;5256;48.728;9.140;2024-02-21T03:41:34;0.87;;;0.87;;
10418;SDS011;5256;48.728;9.140;2024-02-21T03:43:59;0.77;;;0.77;;
10418;SDS011;5256;48.728;9.140;2024-02-21T03:46:25;0.80;;;0.80;;
10418;SDS011;5256;48.728;9.140;2024-02-21T03:48:51;0.70;;;0.70;;
10418;SDS011;5256;48.728;9.140;2024-02-21T03:51:16;0.70;;;0.70;;
10418;SDS011;5256;48.728;9.140;2024-02-21T03:53:42;0.70;;;0.70;;
10418;SDS011;5256;48.728;9.140;2024-02-21T03:56:08;0.70;;;0.70;;
10418;SDS011;5256;48.728;9.140;2024-02-21T03:58:33;0.70;;;0.70;;
10418;SDS011;5256;48.728;9.140;2024-02-21T04:01:02;0.73;;;0.73;;
10418;SDS011;5256;48.728;9.140;2024-02-21T04:03:28;0.70;;;0.70;;
10418;SDS011;5256;48.728;9.140;2024-02-21T04:05:55;0.80;;;0.80;;
10418;SDS011;5256;48.728;9.140;2024-02-21T04:08:21;0.80;;;0.80;;
10418;SDS011;5256;48.728;9.140;2024-02-21T04:10:47;0.77;;;0.77;;
10418;SDS011;5256;48.728;9.140;2024-02-21T04:13:13;0.70;;;0.70;;
10418;SDS011;5256;48.728;9.140;2024-02-21T04:15:38;0.63;;;0.63;;
10418;SDS011;5256;48.728;9.140;2024-02-21T04:18:04;0.70;;;0.70;;
10418;SDS011;5256;48.728;9.140;2024-02-21T04:20:29;0.80;;;0.80;;
10418;SDS011;5256;48.728;9.140;2024-02-21T04:22:55;0.70;;;0.70;;
10418;SDS011;5256;48.728;9.140;2024-02-21T04:25:21;0.70;;;0.70;;
10418;SDS011;5256;48.728;9.140;2024-02-21T04:27:47;0.70;;;0.70;;
10418;SDS011;5256;48.728;9.140;2024-02-21T04:30:12;0.80;;;0.80;;
10418;SDS011;5256;48.728;9.140;2024-02-21T04:32:38;0.70;;;0.70;;
10418;SDS011;5256;48.728;9.140;2024-02-21T04:35:04;0.70;;;0.70;;
10418;SDS011;5256;48.728;9.140;2024-02-21T04:37:30;0.73;;;0.73;;
10418;SDS011;5256;48.728;9.140;2024-02-21T04:39:56;0.70;;;0.70;;
10418;SDS011;5256;48.728;9.140;2024-02-21T04:42:21;0.70;;;0.70;;
10418;SDS011;5256;48.728;9.140;2024-02-21T04:44:47;0.70;;;0.70;;
10418;SDS011;5256;48.728;9.140;2024-02-21T04:47:12;0.70;;;0.70;;
10418;SDS011;5256;48.728;9.140;2024-02-21T04:49:38;0.70;;;0.70;;
10418;SDS011;5256;48.728;9.140;2024-02-21T04:52:04;0.70;;;0.70;;
10418;SDS011;5256;48.728;9.140;2024-02-21T04:54:30;0.70;;;0.70;;
10418;SDS011;5256;48.728;9.140;2024-02-21T04:56:55;0.70;;;0.70;;
10418;SDS011;5256;48.728;9.140;2024-02-21T04:59:21;0.80;;;0.80;;
10418;SDS011;5256;48.728;9.140;2024-02-21T05:01:46;0.80;;;0.80;;
10418;SDS011;5256;48.728;9.140;2024-02-21T05:04:12;0.80;;;0.80;;
10418;SDS011;5256;48.728;9.140;2024-02-21T05:06:38;0.90;;;0.90;;
10418;SDS011;5256;48.728;9.140;2024-02-21T05:09:04;0.70;;;0.70;;
10418;SDS011;5256;48.728;9.140;2024-02-21T05:11:30;0.70;;;0.70;;
10418;SDS011;5256;48.728;9.140;2024-02-21T05:13:56;0.70;;;0.70;;
10418;SDS011;5256;48.728;9.140;2024-02-21T05:16:21;0.70;;;0.70;;
10418;SDS011;5256;48.728;9.140;2024-02-21T05:18:47;0.80;;;0.80;;
10418;SDS011;5256;48.728;9.140;2024-02-21T05:21:12;0.80;;;0.80;;
10418;SDS011;5256;48.728;9.140;2024-02-21T05:23:38;0.70;;;0.70;;
10418;SDS011;5256;48.728;9.140;2024-02-21T05:26:07;0.80;;;0.80;;
10418;SDS011;5256;48.728;9.140;2024-02-21T05:28:32;0.70;;;0.70;;
10418;SDS011;5256;48.728;9.140;2024-02-21T05:30:58;0.80;;;0.80;;
10418;SDS011;5256;48.728;9.140;2024-02-21T05:33:24;0.80;;;0.80;;
10418;SDS011;5256;48.728;9.140;2024-02-21T05:35:50;0.70;;;0.70;;
10418;SDS011;5256;48.728;9.140;2024-02-21T05:38:16;0.90;;;0.90;;
10418;SDS011;5256;48.728;9.140;2024-02-21T05:40:41;0.70;;;0.70;;
10418;SDS011;5256;48.728;9.140;2024-02-21T05:43:07;0.73;;;0.73;;
10418;SDS011;5256;48.728;9.140;2024-02-21T05:45:33;0.80;;;0.80;;
10418;SDS011;5256;48.728;9.140;2024-02-21T05:47:59;0.77;;;0.77;;
10418;SDS011;5256;48.728;9.140;2024-02-21T05:50:25;0.70;;;0.70;;
10418;SDS011;5256;48.728;9.140;2024-02-21T05:52:52;0.70;;;0.70;;
10418;SDS011;5256;48.728;9.140;2024-02-21T05:55:18;0.80;;;0.80;;
10418;SDS011;5256;48.728;9.140;2024-02-21T05:57:44;0.70;;;0.70;;
10418;SDS011;5256;48.728;9.140;2024-02-21T06:00:10;0.70;;;0.70;;
10418;SDS011;5256;48.728;9.140;2024-02-21T06:02:36;0.80;;;0.80;;
10418;SDS011;5256;48.728;9.140;2024-02-21T06:05:01;0.77;;;0.77;;
10418;SDS011;5256;48.728;9.140;2024-02-21T06:07:27;0.80;;;0.80;;
10418;SDS011;5256;48.728;9.140;2024-02-21T06:09:52;0.80;;;0.80;;
10418;SDS011;5256;48.728;9.140;2024-02-21T06:12:18;0.70;;;0.70;;
10418;SDS011;5256;48.728;9.140;2024-02-21T06:14:43;0.70;;;0.70;;
10418;SDS011;5256;48.728;9.140;2024-02-21T06:17:09;0.80;;;0.80;;
10418;SDS011;5256;48.728;9.140;2024-02-21T06:19:35;0.70;;;0.70;;
10418;SDS011;5256;48.728;9.140;2024-02-21T06:22:01;0.80;;;0.80;;
10418;SDS011;5256;48.728;9.140;2024-02-21T06:24:26;0.80;;;0.80;;
10418;SDS011;5256;48.728;9.140;2024-02-21T06:26:52;0.80;;;0.80;;
10418;SDS011;5256;48.728;9.140;2024-02-21T06:29:17;0.70;;;0.70;;
10418;SDS011;5256;48.728;9.140;2024-02-21T06:31:43;0.80;;;0.80;;
10418;SDS011;5256;48.728;9.140;2024-02-21T06:34:08;0.80;;;0.80;;
10418;SDS011;5256;48.728;9.140;2024-02-21T06:36:34;0.80;;;0.80;;
10418;SDS011;5256;48.728;9.140;2024-02-21T06:39:00;0.70;;;0.70;;
10418;SDS011;5256;48.728;9.140;2024-02-21T06:41:25;0.70;;;0.70;;
10418;SDS011;5256;48.728;9.140;2024-02-21T06:43:51;0.83;;;0.83;;
10418;SDS011;5256;48.728;9.140;2024-02-21T06:46:22;0.90;;;0.90;;
10418;SDS011;5256;48.728;9.140;2024-02-21T06:48:49;0.90;;;0.90;;
10418;SDS011;5256;48.728;9.140;2024-02-21T06:51:14;0.80;;;0.80;;
10418;SDS011;5256;48.728;9.140;2024-02-21T06:53:40;0.70;;;0.70;;
10418;SDS011;5256;48.728;9.140;2024-02-21T06:56:05;0.80;;;0.80;;
10418;SDS011;5256;48.728;9.140;2024-02-21T06:58:31;0.80;;;0.80;;
10418;SDS011;5256;48.728;9.140;2024-02-21T07:00:56;0.70;;;0.70;;
10418;SDS011;5256;48.728;9.140;2024-02-21T07:03:22;0.80;;;0.80;;
10418;SDS011;5256;48.728;9.140;2024-02-21T07:05:49;0.73;;;0.73;;
10418;SDS011;5256;48.728;9.140;2024-02-21T07:08:15;0.70;;;0.70;;
10418;SDS011;5256;48.728;9.140;2024-02-21T07:10:40;0.70;;;0.70;;
10418;SDS011;5256;48.728;9.140;2024-02-21T07:13:06;0.80;;;0.80;;
10418;SDS011;5256;48.728;9.140;2024-02-21T07:15:32;0.70;;;0.70;;
10418;SDS011;5256;48.728;9.140;2024-02-21T07:17:58;0.80;;;0.80;;
10418;SDS011;5256;48.728;9.140;2024-02-21T07:20:23;0.60;;;0.60;;
10418;SDS011;5256;48.728;9.140;2024-02-21T07:22:49;0.70;;;0.70;;
10418;SDS011;5256;48.728;9.140;2024-02-21T07:25:15;0.70;;;0.70;;
10418;SDS011;5256;48.728;9.140;2024-02-21T07:27:41;0.70;;;0.70;;
10418;SDS011;5256;48.728;9.140;2024-02-21T07:30:08;0.73;;;0.73;;
10418;SDS011;5256;48.728;9.140;2024-02-21T07:32:34;0.70;;;0.70;;
10418;SDS011;5256;48.728;9.140;2024-02-21T07:34:59;0.70;;;0.70;;
10418;SDS011;5256;48.728;9.140;2024-02-21T07:37:25;0.80;;;0.80;;
10418;SDS011;5256;48.728;9.140;2024-02-21T07:39:50;0.80;;;0.80;;
10418;SDS011;5256;48.728;9.140;2024-02-21T07:42:16;0.70;;;0.70;;
10418;SDS011;5256;48.728;9.140;2024-02-21T07:44:41;0.70;;;0.70;;
10418;SDS011;5256;48.728;9.140;2024-02-21T07:47:07;0.60;;;0.60;;
10418;SDS011;5256;48.728;9.140;2024-02-21T07:49:33;0.73;;;0.73;;
10418;SDS011;5256;48.728;9.140;2024-02-21T07:52:05;0.70;;;0.70;;
10418;SDS011;5256;48.728;9.140;2024-02-21T07:54:31;0.70;;;0.70;;
10418;SDS011;5256;48.728;9.140;2024-02-21T07:56:56;0.60;;;0.60;;
10418;SDS011;5256;48.728;9.140;2024-02-21T07:59:22;0.70;;;0.70;;
10418;SDS011;5256;48.728;9.140;2024-02-21T08:01:47;0.70;;;0.70;;
10418;SDS011;5256;48.728;9.140;2024-02-21T08:04:13;0.70;;;0.70;;
10418;SDS011;5256;48.728;9.140;2024-02-21T08:06:39;0.80;;;0.80;;
10418;SDS011;5256;48.728;9.140;2024-02-21T08:09:05;0.70;;;0.70;;
10418;SDS011;5256;48.728;9.140;2024-02-21T08:11:31;0.70;;;0.70;;
10418;SDS011;5256;48.728;9.140;2024-02-21T08:13:57;0.50;;;0.50;;
10418;SDS011;5256;48.728;9.140;2024-02-21T08:16:23;0.70;;;0.70;;
10418;SDS011;5256;48.728;9.140;2024-02-21T08:18:48;0.67;;;0.67;;
10418;SDS011;5256;48.728;9.140;2024-02-21T08:21:14;0.57;;;0.57;;
10418;SDS011;5256;48.728;9.140;2024-02-21T08:23:39;0.60;;;0.60;;
10418;SDS011;5256;48.728;9.140;2024-02-21T08:26:05;0.60;;;0.60;;
10418;SDS011;5256;48.728;9.140;2024-02-21T08:28:31;0.60;;;0.60;;
10418;SDS011;5256;48.728;9.140;2024-02-21T08:30:57;0.50;;;0.50;;
10418;SDS011;5256;48.728;9.140;2024-02-21T08:33:23;0.60;;;0.60;;
10418;SDS011;5256;48.728;9.140;2024-02-21T08:35:51;0.60;;;0.60;;
10418;SDS011;5256;48.728;9.140;2024-02-21T08:38:17;0.60;;;0.60;;
10418;SDS011;5256;48.728;9.140;2024-02-21T08:40:43;0.60;;;0.60;;
10418;SDS011;5256;48.728;9.140;2024-02-21T08:43:12;0.50;;;0.50;;
10418;SDS011;5256;48.728;9.140;2024-02-21T08:45:38;0.60;;;0.60;;
10418;SDS011;5256;48.728;9.140;2024-02-21T08:48:04;0.60;;;0.60;;
10418;SDS011;5256;48.728;9.140;2024-02-21T08:50:30;0.50;;;0.50;;
10418;SDS011;5256;48.728;9.140;2024-02-21T08:52:56;0.50;;;0.50;;
10418;SDS011;5256;48.728;9.140;2024-02-21T08:55:22;0.50;;;0.50;;
10418;SDS011;5256;48.728;9.140;2024-02-21T08:57:49;0.50;;;0.50;;
10418;SDS011;5256;48.728;9.140;2024-02-21T09:00:15;0.60;;;0.60;;
10418;SDS011;5256;48.728;9.140;2024-02-21T09:02:41;0.50;;;0.50;;
10418;SDS011;5256;48.728;9.140;2024-02-21T09:05:10;0.60;;;0.60;;
10418;SDS011;5256;48.728;9.140;2024-02-21T09:07:36;0.60;;;0.60;;
10418;SDS011;5256;48.728;9.140;2024-02-21T09:10:02;0.60;;;0.60;;
10418;SDS011;5256;48.728;9.140;2024-02-21T09:12:28;0.50;;;0.50;;
10418;SDS011;5256;48.728;9.140;2024-02-21T09:14:54;0.60;;;0.60;;
10418;SDS011;5256;48.728;9.140;2024-02-21T09:17:19;0.50;;;0.50;;
10418;SDS011;5256;48.728;9.140;2024-02-21T09:19:46;0.67;;;0.67;;
10418;SDS011;5256;48.728;9.140;2024-02-21T09:22:12;0.50;;;0.50;;
10418;SDS011;5256;48.728;9.140;2024-02-21T09:24:38;0.50;;;0.50;;
10418;SDS011;5256;48.728;9.140;2024-02-21T09:27:04;0.60;;;0.60;;
10418;SDS011;5256;48.728;9.140;2024-02-21T09:29:31;0.60;;;0.60;;
10418;SDS011;5256;48.728;9.140;2024-02-21T09:31:57;0.60;;;0.60;;
10418;SDS011;5256;48.728;9.140;2024-02-21T09:34:24;0.53;;;0.53;;
10418;SDS011;5256;48.728;9.140;2024-02-21T09:36:49;0.60;;;0.60;;
10418;SDS011;5256;48.728;9.140;2024-02-21T09:39:15;0.50;;;0.50;;
10418;SDS011;5256;48.728;9.140;2024-02-21T09:41:45;0.70;;;0.70;;
10418;SDS011;5256;48.728;9.140;2024-02-21T09:44:17;0.67;;;0.67;;
10418;SDS011;5256;48.728;9.140;2024-02-21T09:46:52;0.40;;;0.40;;
10418;SDS011;5256;48.728;9.140;2024-02-21T09:49:32;0.50;;;0.50;;
10418;SDS011;5256;48.728;9.140;2024-02-21T09:52:00;0.53;;;0.53;;
10418;SDS011;5256;48.728;9.140;2024-02-21T09:54:29;0.40;;;0.40;;
10418;SDS011;5256;48.728;9.140;2024-02-21T09:56:59;0.50;;;0.50;;
10418;SDS011;5256;48.728;9.140;2024-02-21T09:59:26;0.60;;;0.60;;
10418;SDS011;5256;48.728;9.140;2024-02-21T10:01:53;0.50;;;0.50;;
10418;SDS011;5256;48.728;9.140;2024-02-21T10:04:19;0.60;;;0.60;;
10418;SDS011;5256;48.728;9.140;2024-02-21T10:06:45;0.50;;;0.50;;
10418;SDS011;5256;48.728;9.140;2024-02-21T10:09:23;0.50;;;0.50;;
10418;SDS011;5256;48.728;9.140;2024-02-21T10:11:53;0.50;;;0.50;;
10418;SDS011;5256;48.728;9.140;2024-02-21T10:14:19;0.50;;;0.50;;
10418;SDS011;5256;48.728;9.140;2024-02-21T10:16:47;0.57;;;0.57;;
10418;SDS011;5256;48.728;9.140;2024-02-21T10:19:20;0.53;;;0.53;;
10418;SDS011;5256;48.728;9.140;2024-02-21T10:24:27;0.50;;;0.50;;
10418;SDS011;5256;48.728;9.140;2024-02-21T10:27:03;0.60;;;0.60;;
10418;SDS011;5256;48.728;9.140;2024-02-21T10:29:35;0.60;;;0.60;;
10418;SDS011;5256;48.728;9.140;2024-02-21T10:32:11;0.60;;;0.60;;
10418;SDS011;5256;48.728;9.140;2024-02-21T10:34:40;0.40;;;0.40;;
10418;SDS011;5256;48.728;9.140;2024-02-21T10:37:07;0.63;;;0.63;;
10418;SDS011;5256;48.728;9.140;2024-02-21T10:39:35;0.50;;;0.50;;
10418;SDS011;5256;48.728;9.140;2024-02-21T10:42:03;0.50;;;0.50;;
10418;SDS011;5256;48.728;9.140;2024-02-21T10:44:29;0.40;;;0.40;;
10418;SDS011;5256;48.728;9.140;2024-02-21T10:47:00;0.40;;;0.40;;
10418;SDS011;5256;48.728;9.140;2024-02-21T10:49:32;0.40;;;0.40;;
10418;SDS011;5256;48.728;9.140;2024-02-21T10:52:13;0.50;;;0.50;;
10418;SDS011;5256;48.728;9.140;2024-02-21T10:57:17;0.50;;;0.50;;
10418;SDS011;5256;48.728;9.140;2024-02-21T10:59:44;0.60;;;0.60;;
10418;SDS011;5256;48.728;9.140;2024-02-21T11:02:10;0.40;;;0.40;;
10418;SDS011;5256;48.728;9.140;2024-02-21T11:04:36;0.50;;;0.50;;
10418;SDS011;5256;48.728;9.140;2024-02-21T11:07:03;0.50;;;0.50;;
10418;SDS011;5256;48.728;9.140;2024-02-21T11:09:30;0.40;;;0.40;;
10418;SDS011;5256;48.728;9.140;2024-02-21T11:12:02;0.50;;;0.50;;
10418;SDS011;5256;48.728;9.140;2024-02-21T11:14:31;0.50;;;0.50;;
10418;SDS011;5256;48.728;9.140;2024-02-21T11:16:57;0.50;;;0.50;;
10418;SDS011;5256;48.728;9.140;2024-02-21T11:19:27;0.50;;;0.50;;
10418;SDS011;5256;48.728;9.140;2024-02-21T11:21:54;0.47;;;0.47;;
10418;SDS011;5256;48.728;9.140;2024-02-21T11:24:28;0.33;;;0.33;;
10418;SDS011;5256;48.728;9.140;2024-02-21T11:26:55;0.40;;;0.40;;
10418;SDS011;5256;48.728;9.140;2024-02-21T11:29:43;0.40;;;0.40;;
10418;SDS011;5256;48.728;9.140;2024-02-21T11:32:14;0.30;;;0.30;;
10418;SDS011;5256;48.728;9.140;2024-02-21T11:34:40;0.40;;;0.40;;
10418;SDS011;5256;48.728;9.140;2024-02-21T11:37:15;0.40;;;0.40;;
10418;SDS011;5256;48.728;9.140;2024-02-21T11:39:41;0.50;;;0.50;;
10418;SDS011;5256;48.728;9.140;2024-02-21T11:42:07;0.40;;;0.40;;
10418;SDS011;5256;48.728;9.140;2024-02-21T11:44:34;0.50;;;0.50;;
10418;SDS011;5256;48.728;9.140;2024-02-21T11:47:02;0.40;;;0.40;;
10418;SDS011;5256;48.728;9.140;2024-02-21T11:49:29;0.40;;;0.40;;
10418;SDS011;5256;48.728;9.140;2024-02-21T11:51:58;0.40;;;0.40;;
10418;SDS011;5256;48.728;9.140;2024-02-21T11:54:25;0.50;;;0.50;;
10418;SDS011;5256;48.728;9.140;2024-02-21T11:56:54;0.43;;;0.43;;
10418;SDS011;5256;48.728;9.140;2024-02-21T11:59:20;0.43;;;0.43;;
10418;SDS011;5256;48.728;9.140;2024-02-21T12:01:46;0.50;;;0.50;;
10418;SDS011;5256;48.728;9.140;2024-02-21T12:04:13;0.40;;;0.40;;
10418;SDS011;5256;48.728;9.140;2024-02-21T12:06:39;0.47;;;0.47;;
10418;SDS011;5256;48.728;9.140;2024-02-21T12:09:07;0.40;;;0.40;;
10418;SDS011;5256;48.728;9.140;2024-02-21T12:11:36;0.50;;;0.50;;
10418;SDS011;5256;48.728;9.140;2024-02-21T12:14:02;0.40;;;0.40;;
10418;SDS011;5256;48.728;9.140;2024-02-21T12:16:32;0.50;;;0.50;;
10418;SDS011;5256;48.728;9.140;2024-02-21T12:18:58;0.50;;;0.50;;
10418;SDS011;5256;48.728;9.140;2024-02-21T12:21:29;0.40;;;0.40;;
10418;SDS011;5256;48.728;9.140;2024-02-21T12:23:57;0.40;;;0.40;;
10418;SDS011;5256;48.728;9.140;2024-02-21T12:26:23;0.57;;;0.57;;
10418;SDS011;5256;48.728;9.140;2024-02-21T12:28:49;0.40;;;0.40;;
10418;SDS011;5256;48.728;9.140;2024-02-21T12:31:15;0.50;;;0.50;;
10418;SDS011;5256;48.728;9.140;2024-02-21T12:33:41;0.40;;;0.40;;
10418;SDS011;5256;48.728;9.140;2024-02-21T12:36:09;0.40;;;0.40;;
10418;SDS011;5256;48.728;9.140;2024-02-21T12:38:35;0.53;;;0.53;;
10418;SDS011;5256;48.728;9.140;2024-02-21T12:41:02;0.73;;;0.73;;
10418;SDS011;5256;48.728;9.140;2024-02-21T12:43:28;0.50;;;0.50;;
10418;SDS011;5256;48.728;9.140;2024-02-21T12:45:54;0.30;;;0.30;;
10418;SDS011;5256;48.728;9.140;2024-02-21T12:48:19;0.40;;;0.40;;
10418;SDS011;5256;48.728;9.140;2024-02-21T12:50:49;0.50;;;0.50;;
10418;SDS011;5256;48.728;9.140;2024-02-21T12:53:16;0.43;;;0.43;;
10418;SDS011;5256;48.728;9.140;2024-02-21T12:55:43;0.40;;;0.40;;
10418;SDS011;5256;48.728;9.140;2024-02-21T12:58:10;0.40;;;0.40;;
10418;SDS011;5256;48.728;9.140;2024-02-21T13:00:35;0.40;;;0.40;;
10418;SDS011;5256;48.728;9.140;2024-02-21T13:03:02;0.40;;;0.40;;
10418;SDS011;5256;48.728;9.140;2024-02-21T13:05:28;0.40;;;0.40;;
10418;SDS011;5256;48.728;9.140;2024-02-21T13:07:54;0.40;;;0.40;;
10418;SDS011;5256;48.728;9.140;2024-02-21T13:10:19;0.50;;;0.50;;
10418;SDS011;5256;48.728;9.140;2024-02-21T13:12:46;0.40;;;0.40;;
10418;SDS011;5256;48.728;9.140;2024-02-21T13:15:12;0.30;;;0.30;;
10418;SDS011;5256;48.728;9.140;2024-02-21T13:17:37;0.40;;;0.40;;
10418;SDS011;5256;48.728;9.140;2024-02-21T13:20:03;0.50;;;0.50;;
10418;SDS011;5256;48.728;9.140;2024-02-21T13:22:29;0.40;;;0.40;;
10418;SDS011;5256;48.728;9.140;2024-02-21T13:24:55;0.60;;;0.60;;
10418;SDS011;5256;48.728;9.140;2024-02-21T13:27:20;0.50;;;0.50;;
10418;SDS011;5256;48.728;9.140;2024-02-21T13:29:46;0.50;;;0.50;;
10418;SDS011;5256;48.728;9.140;2024-02-21T13:32:12;0.40;;;0.40;;
10418;SDS011;5256;48.728;9.140;2024-02-21T13:34:37;0.40;;;0.40;;
10418;SDS011;5256;48.728;9.140;2024-02-21T13:37:03;0.47;;;0.47;;
10418;SDS011;5256;48.728;9.140;2024-02-21T13:39:29;0.40;;;0.40;;
10418;SDS011;5256;48.728;9.140;2024-02-21T13:41:55;0.50;;;0.50;;
10418;SDS011;5256;48.728;9.140;2024-02-21T13:44:20;0.40;;;0.40;;
10418;SDS011;5256;48.728;9.140;2024-02-21T13:46:46;0.30;;;0.30;;
10418;SDS011;5256;48.728;9.140;2024-02-21T13:49:12;0.30;;;0.30;;
10418;SDS011;5256;48.728;9.140;2024-02-21T13:51:37;0.50;;;0.50;;
10418;SDS011;5256;48.728;9.140;2024-02-21T13:54:03;0.40;;;0.40;;
10418;SDS011;5256;48.728;9.140;2024-02-21T13:56:30;0.47;;;0.47;;
10418;SDS011;5256;48.728;9.140;2024-02-21T13:58:57;0.60;;;0.60;;
10418;SDS011;5256;48.728;9.140;2024-02-21T14:01:23;0.40;;;0.40;;
10418;SDS011;5256;48.728;9.140;2024-02-21T14:03:48;0.40;;;0.40;;
10418;SDS011;5256;48.728;9.140;2024-02-21T14:06:14;0.40;;;0.40;;
10418;SDS011;5256;48.728;9.140;2024-02-21T14:08:40;0.40;;;0.40;;
10418;SDS011;5256;48.728;9.140;2024-02-21T14:11:06;0.40;;;0.40;;
10418;SDS011;5256;48.728;9.140;2024-02-21T14:13:32;0.40;;;0.40;;
10418;SDS011;5256;48.728;9.140;2024-02-21T14:15:57;0.47;;;0.47;;
10418;SDS011;5256;48.728;9.140;2024-02-21T14:18:23;0.40;;;0.40;;
10418;SDS011;5256;48.728;9.140;2024-02-21T14:20:48;0.40;;;0.40;;
10418;SDS011;5256;48.728;9.140;2024-02-21T14:23:14;0.50;;;0.50;;
10418;SDS011;5256;48.728;9.140;2024-02-21T14:25:40;0.40;;;0.40;;
10418;SDS011;5256;48.728;9.140;2024-02-21T14:28:07;0.40;;;0.40;;
10418;SDS011;5256;48.728;9.140;2024-02-21T14:30:34;0.43;;;0.43;;
10418;SDS011;5256;48.728;9.140;2024-02-21T14:33:00;0.47;;;0.47;;
10418;SDS011;5256;48.728;9.140;2024-02-21T14:35:25;0.40;;;0.40;;
10418;SDS011;5256;48.728;9.140;2024-02-21T14:37:51;0.40;;;0.40;;
10418;SDS011;5256;48.728;9.140;2024-02-21T14:40:22;0.40;;;0.40;;
10418;SDS011;5256;48.728;9.140;2024-02-21T14:42:47;0.50;;;0.50;;
10418;SDS011;5256;48.728;9.140;2024-02-21T14:45:13;0.40;;;0.40;;
10418;SDS011;5256;48.728;9.140;2024-02-21T14:47:39;0.30;;;0.30;;
10418;SDS011;5256;48.728;9.140;2024-02-21T14:50:04;0.43;;;0.43;;
10418;SDS011;5256;48.728;9.140;2024-02-21T14:52:31;0.40;;;0.40;;
10418;SDS011;5256;48.728;9.140;2024-02-21T14:54:58;0.40;;;0.40;;
10418;SDS011;5256;48.728;9.140;2024-02-21T14:57:23;0.50;;;0.50;;
10418;SDS011;5256;48.728;9.140;2024-02-21T14:59:50;0.53;;;0.53;;
10418;SDS011;5256;48.728;9.140;2024-02-21T15:02:21;0.40;;;0.40;;
10418;SDS011;5256;48.728;9.140;2024-02-21T15:04:48;0.43;;;0.43;;